Nelson, Nevada
Current Conditions -  °F | °C
As of 10:55 PM on Wednesday 22 Oct 2014 (Local Time) from KBVU Reporting Station
Clear Clear  
Wind Chill: 64°   Ceiling: Unl
Heat Index: 64°   Visibility: 10mi
Dew Point: 34°   Wind: 5mph
Humidity: 32%   Direction: 360°N
Pressure: 30.04"   Gusts: NA
Location:  35.522°N, 115.012°W
Report Text: KBVU 230555Z AUTO 36004KT 10SM CLR 18/01 A3004 RMK AO2
Loading
Personal Weather Stations






























Interactive Weather Map
Tropical Storm Tracking
New forecast layout! Learn more

10-Day Weather Forecast

Advertisements
Track Severe Weather on mobile